Latest Coastal Weather Observations for Mandora

IDW60701

Issued at 5:52 pm WST Friday 1 July 2016 (issued every 10 minutes, with the page automatically refreshed every 10 minutes)

About coastal observations | Map of coastal stations | Coastal observations for WA | Marine services | Other Formats
Station Details ID: 004019 Name: MANDORA Lat: -19.74 Lon: 120.84 Height: 7.5 m
Data from the previous 72 hours. | See also: Recent months at Mandora
Date/Time
WST
Temp
°C
Wind Pressure Rain since
9am
mm
Weather Cloud Vis
km
Sea
Height
m
Swell
Dir  Spd
kts
Gust
kts
hPa Trend Height
m
Period
s
Dir
01/05:30pm 26.3 SE 8 13 1015.0 - 0.0 - - - - - - -
01/05:00pm 26.8 SE 8 13 1015.2 - 0.0 - - - - - - -
01/04:30pm 27.0 SE 9 15 1014.9 - 0.0 - - - - - - -
01/04:00pm 27.4 SE 10 19 1015.1 - 0.0 - - - - - - -
01/03:30pm 26.9 SE 12 19 1014.5 - 0.0 - - - - - - -
01/03:00pm 26.9 SE 11 16 1014.7 - 0.0 - - - - - - -
01/02:30pm 26.3 SE 12 19 1014.8 - 0.0 - - - - - - -
01/02:00pm 25.9 SE 13 21 1014.8 - 0.0 - - - - - - -
01/01:30pm 25.5 SE 11 18 1015.4 - 0.0 - - - - - - -
01/01:00pm 25.9 SSE 13 21 1015.4 - 0.0 - - - - - - -
01/12:52pm 26.3 SSE 15 25 1015.5 - 0.0 - - - - - - -
01/12:30pm 28.2 SE 11 20 1015.9 - 0.0 - - - - - - -
01/12:00pm 27.3 SE 14 20 1016.3 - 0.0 - - - - - - -
01/11:30am 26.7 SE 12 20 1017.1 - 0.0 - - - - - - -
01/11:00am 26.3 SE 14 21 1017.2 - 0.0 - - - - - - -
01/10:30am 25.3 SE 13 21 1017.7 - 0.0 - - - - - - -
01/10:00am 25.5 SE 13 20 1018.0 - 0.0 - - - - - - -
01/09:30am 24.7 SE 11 19 1018.0 - 0.0 - - - - - - -
01/09:00am 23.7 SE 11 18 1017.8 - 0.0 - - - - - - -
01/08:30am 22.8 SE 11 15 1017.5 - 0.0 - - - - - - -
01/08:00am 22.3 SE 11 21 1017.1 - 0.0 - - - - - - -
01/07:30am 22.1 SE 11 18 1017.0 - 0.0 - - - - - - -
01/07:00am 22.2 SE 11 19 1016.8 - 0.0 - - - - - - -
01/06:30am 22.3 SE 10 16 1016.4 - 0.0 - - - - - - -
01/06:00am 22.5 SE 10 16 1016.0 - 0.0 - - - - - - -
01/05:30am 22.6 SE 10 15 1015.8 - 0.0 - - - - - - -
01/05:00am 22.8 SE 10 17 1015.5 - 0.0 - - - - - - -
01/04:30am 23.1 SE 11 16 1015.6 - 0.0 - - - - - - -
01/04:00am 22.8 SE 9 15 1015.8 - 0.0 - - - - - - -
01/03:30am 22.8 SE 11 20 1015.5 - 0.0 - - - - - - -
01/03:00am 23.3 SE 10 16 1015.5 - 0.0 - - - - - - -
01/02:30am 24.0 SE 10 17 1015.5 - 0.0 - - - - - - -
01/02:00am 24.3 SE 10 15 1015.7 - 0.0 - - - - - - -
01/01:30am 24.5 SSE 9 17 1015.9 - 0.0 - - - - - - -
01/01:00am 24.8 SSE 9 14 1016.3 - 0.0 - - - - - - -
01/12:30am 25.0 SSE 9 12 1016.3 - 0.0 - - - - - - -
01/12:00am 25.1 SSE 8 12 1016.4 - 0.0 - - - - - - -
 
Date/Time
WST
Temp
°C
Wind Pressure Rain since
9am
mm
Weather Cloud Vis
km
Sea
Height
m
Swell
Dir  Spd
kts
Gust
kts
hPa Trend Height
m
Period
s
Dir
30/11:30pm 25.1 SSE 6 8 1016.4 - 0.0 - - - - - - -
30/11:00pm 25.0 SSE 6 8 1016.5 - 0.0 - - - - - - -
30/10:30pm 25.1 SSE 6 7 1016.5 - 0.0 - - - - - - -
30/10:00pm 25.7 SSE 6 9 1016.4 - 0.0 - - - - - - -
30/09:30pm 26.1 SSE 6 8 1016.3 - 0.0 - - - - - - -
30/09:00pm 25.8 SSE 7 9 1016.1 - 0.0 - - - - - - -
30/08:30pm 24.3 SW 4 6 1015.9 - 0.0 - - - - - - -
30/08:00pm 24.7 WSW 4 5 1015.6 - 0.0 - - - - - - -
30/07:30pm 25.1 WSW 5 7 1015.3 - 0.0 - - - - - - -
30/07:00pm 24.8 WSW 5 6 1015.0 - 0.0 - - - - - - -
30/06:30pm 25.0 W 5 6 1014.6 - 0.0 - - - - - - -
30/06:00pm 25.2 WSW 5 9 1014.5 - 0.0 - - - - - - -
30/05:30pm 25.6 WNW 5 7 1014.0 - 0.0 - - - - - - -
30/05:00pm 27.0 NW 4 5 1013.5 - 0.0 - - - - - - -
30/04:30pm 28.4 W 4 5 1013.1 - 0.0 - - - - - - -
30/04:00pm 28.9 NW 4 6 1013.0 - 0.0 - - - - - - -
30/03:30pm 31.4 E 4 6 1013.0 - 0.0 - - - - - - -
30/03:00pm 31.5 ENE 5 7 1012.9 - 0.0 - - - - - - -
30/02:30pm 31.5 ENE 5 9 1012.9 - 0.0 - - - - - - -
30/02:00pm 31.7 ESE 6 10 1013.1 - 0.0 - - - - - - -
30/01:30pm 31.0 E 6 8 1013.2 - 0.0 - - - - - - -
30/01:00pm 30.6 E 5 9 1013.6 - 0.0 - - - - - - -
30/12:30pm 30.6 ESE 7 10 1014.2 - 0.0 - - - - - - -
30/12:00pm 29.7 SE 7 11 1014.7 - 0.0 - - - - - - -
30/11:30am 29.0 SE 8 13 1015.1 - 0.0 - - - - - - -
30/11:00am 28.3 SE 9 13 1015.5 - 0.0 - - - - - - -
30/10:30am 27.4 SE 11 16 1015.8 - 0.0 - - - - - - -
30/10:00am 26.8 ESE 9 14 1016.2 - 0.0 - - - - - - -
30/09:30am 25.8 SE 9 12 1016.7 - 0.0 - - - - - - -
30/09:00am 24.8 SE 9 13 1016.7 - 0.0 - - - - - - -
30/08:30am 24.1 SE 8 12 1016.8 - 0.0 - - - - - - -
30/08:00am 22.4 SE 5 7 1016.7 - 0.0 - - - - - - -
30/07:30am 21.3 SE 5 7 1016.3 - 0.0 - - - - - - -
30/07:00am 20.0 SE 5 7 1016.2 - 0.0 - - - - - - -
30/06:30am 19.9 SE 5 7 1015.9 - 0.0 - - - - - - -
30/06:00am 19.7 SE 5 7 1015.7 - 0.0 - - - - - - -
30/05:30am 19.9 SE 5 6 1015.6 - 0.0 - - - - - - -
30/05:00am 19.4 SE 5 7 1015.4 - 0.0 - - - - - - -
30/04:30am 20.0 SE 5 6 1015.2 - 0.0 - - - - - - -
30/04:00am 20.6 SSE 6 8 1015.1 - 0.0 - - - - - - -
30/03:30am 20.1 SSE 5 7 1015.2 - 0.0 - - - - - - -
30/03:00am 18.8 SE 3 4 1015.3 - 0.0 - - - - - - -
30/02:30am 19.7 S 5 5 1015.3 - 0.0 - - - - - - -
30/02:00am 20.3 SE 4 5 1015.8 - 0.0 - - - - - - -
30/01:30am 21.6 S 6 8 1016.0 - 0.0 - - - - - - -
30/01:00am 20.3 SSE 5 6 1016.3 - 0.0 - - - - - - -
30/12:30am 21.0 SSE 5 6 1016.5 - 0.0 - - - - - - -
30/12:00am 21.1 S 5 7 1016.8 - 0.0 - - - - - - -
 
Date/Time
WST
Temp
°C
Wind Pressure Rain since
9am
mm
Weather Cloud Vis
km
Sea
Height
m
Swell
Dir  Spd
kts
Gust
kts
hPa Trend Height
m
Period
s
Dir
29/11:30pm 21.2 S 5 6 1016.9 - 0.0 - - - - - - -
29/11:00pm 21.4 SSW 6 7 1017.0 - 0.0 - - - - - - -
29/10:30pm 21.6 SW 5 6 1016.8 - 0.0 - - - - - - -
29/10:00pm 21.8 SW 6 8 1016.9 - 0.0 - - - - - - -
29/09:30pm 21.9 SW 6 7 1016.8 - 0.0 - - - - - - -
29/09:00pm 22.3 WSW 6 9 1016.7 - 0.0 - - - - - - -
29/08:30pm 22.4 WSW 6 7 1016.7 - 0.0 - - - - - - -
29/08:00pm 22.4 W 5 7 1016.6 - 0.0 - - - - - - -
29/07:30pm 22.8 W 5 6 1016.4 - 0.0 - - - - - - -
29/07:00pm 22.8 W 5 5 1016.0 - 0.0 - - - - - - -
29/06:30pm 23.4 WNW 4 5 1015.7 - 0.0 - - - - - - -
29/06:00pm 24.1 WNW 4 5 1015.3 - 0.0 - - - - - - -
29/05:30pm 25.3 NW 5 6 1014.9 - 0.0 - - - - - - -
29/05:00pm 26.9 NW 6 9 1014.6 - 0.0 - - - - - - -
29/04:30pm 28.6 NW 7 9 1014.2 - 0.0 - - - - - - -
29/04:00pm 30.7 NNW 8 11 1014.0 - 0.0 - - - - - - -
29/03:30pm 31.8 NNW 7 9 1013.7 - 0.0 - - - - - - -
29/03:00pm 32.2 NNW 8 11 1013.6 - 0.0 - - - - - - -
29/02:30pm 32.4 NNW 8 11 1013.7 - 0.0 - - - - - - -
29/02:00pm 33.2 NNW 8 11 1013.7 - 0.0 - - - - - - -
29/01:30pm 33.2 NW 8 13 1013.7 - 0.0 - - - - - - -
29/01:00pm 33.5 S 3 7 1014.0 - 0.0 - - - - - - -
29/12:30pm 33.9 SE 3 6 1014.5 - 0.0 - - - - - - -
29/12:00pm 32.7 SE 4 8 1015.0 - 0.0 - - - - - - -
29/11:30am 32.3 S 4 7 1015.3 - 0.0 - - - - - - -
29/11:00am 32.0 SE 6 9 1015.7 - 0.0 - - - - - - -
29/10:30am 31.4 ESE 6 9 1016.0 - 0.0 - - - - - - -
29/10:00am 29.8 SE 7 10 1016.2 - 0.0 - - - - - - -
29/09:30am 28.7 SE 7 9 1016.5 - 0.0 - - - - - - -
29/09:00am 26.7 SE 9 11 1016.5 - 0.0 - - - - - - -
29/08:30am 24.6 SE 7 12 1016.6 - 0.0 - - - - - - -
29/08:00am 21.9 SE 5 7 1016.6 - 0.0 - - - - - - -
29/07:30am 18.0 SE 4 6 1016.3 - 0.0 - - - - - - -
29/07:00am 14.7 SE 4 5 1015.9 - 0.0 - - - - - - -
29/06:30am 13.7 SE 4 5 1015.7 - 0.0 - - - - - - -
29/06:00am 13.5 SE 4 5 1015.5 - 0.0 - - - - - - -
29/05:30am 13.6 SE 4 5 1015.2 - 0.0 - - - - - - -
29/05:00am 13.9 ESE 4 5 1015.3 - 0.0 - - - - - - -
29/04:30am 14.3 E 3 4 1015.2 - 0.0 - - - - - - -
29/04:00am 15.1 CALM 0 0 1015.1 - 0.0 - - - - - - -
29/03:30am 15.8 E 4 6 1015.1 - 0.0 - - - - - - -
29/03:00am 15.9 ESE 4 5 1015.3 - 0.0 - - - - - - -
29/02:30am 15.6 ESE 5 6 1015.4 - 0.0 - - - - - - -
29/02:00am 15.4 ESE 3 4 1015.7 - 0.0 - - - - - - -
29/01:30am 16.3 SSE 4 4 1016.0 - 0.0 - - - - - - -
29/01:00am 18.1 SE 4 5 1016.1 - 0.0 - - - - - - -
29/12:30am 19.9 S 6 7 1016.2 - 0.0 - - - - - - -
29/12:00am 19.3 SSW 6 7 1016.0 - 0.0 - - - - - - -
 
Date/Time
WST
Temp
°C
Wind Pressure Rain since
9am
mm
Weather Cloud Vis
km
Sea
Height
m
Swell
Dir  Spd
kts
Gust
kts
hPa Trend Height
m
Period
s
Dir
28/11:30pm 19.8 SSW 6 7 1016.1 - 0.0 - - - - - - -
28/11:00pm 19.8 SSW 7 8 1016.3 - 0.0 - - - - - - -
28/10:30pm 19.9 SW 7 8 1016.5 - 0.0 - - - - - - -
28/10:00pm 19.4 SW 6 7 1016.7 - 0.0 - - - - - - -
28/09:30pm 19.4 SW 6 7 1016.6 - 0.0 - - - - - - -
28/09:00pm 19.5 SW 5 6 1016.5 - 0.0 - - - - - - -
28/08:30pm 20.2 SW 6 7 1016.3 - 0.0 - - - - - - -
28/08:00pm 20.8 WSW 6 8 1016.0 - 0.0 - - - - - - -
28/07:30pm 20.4 WSW 5 6 1015.8 - 0.0 - - - - - - -
28/07:00pm 20.6 WSW 5 6 1015.4 - 0.0 - - - - - - -
28/06:30pm 21.4 WSW 4 5 1015.0 - 0.0 - - - - - - -
28/06:00pm 22.5 W 4 5 1014.7 - 0.0 - - - - - - -

Other Formats:

Comma delimited format used in spreadsheet applications
http://www.bom.gov.au/fwo/IDW60701/IDW60701.94200.axf

JavaScript Object Notation format (JSON) in row-major order
http://www.bom.gov.au/fwo/IDW60701/IDW60701.94200.json